createdAt,value
2023-02-18T00:00:15.261Z,1.00
2023-02-18T00:02:41.925Z,1.00
2023-02-18T00:05:08.604Z,1.00
2023-02-18T00:07:35.970Z,1.00
2023-02-18T00:10:03.646Z,1.00
2023-02-18T00:12:30.714Z,51.00
2023-02-18T00:14:57.541Z,99.90
2023-02-18T00:17:24.270Z,99.90
2023-02-18T00:19:50.820Z,99.90
2023-02-18T00:22:17.435Z,99.90
2023-02-18T00:24:43.917Z,1.00
2023-02-18T00:27:10.483Z,1.00
2023-02-18T00:29:37.017Z,1.00
2023-02-18T00:32:03.663Z,1.00
2023-02-18T00:34:30.306Z,1.00
2023-02-18T00:36:56.868Z,1.00
2023-02-18T00:39:23.371Z,1.00
2023-02-18T00:41:49.963Z,1.00
2023-02-18T00:44:16.532Z,99.90
2023-02-18T00:46:43.306Z,99.90
2023-02-18T00:49:09.874Z,99.90
2023-02-18T00:51:36.857Z,99.90
2023-02-18T00:54:03.458Z,1.00
2023-02-18T00:56:29.936Z,1.00
2023-02-18T00:58:56.438Z,1.00
2023-02-18T01:01:23.132Z,1.00
2023-02-18T01:03:49.680Z,1.00
2023-02-18T01:06:16.563Z,1.00
2023-02-18T01:08:43.064Z,1.00
2023-02-18T01:11:10.936Z,1.00
2023-02-18T01:13:37.496Z,1.00
2023-02-18T01:16:04.194Z,1.00
2023-02-18T01:18:31.155Z,1.00
2023-02-18T01:20:57.637Z,1.00
2023-02-18T01:23:24.171Z,1.00
2023-02-18T01:25:51.105Z,1.00
2023-02-18T01:28:18.728Z,1.00
2023-02-18T01:30:45.251Z,1.00
2023-02-18T01:33:11.811Z,1.00
2023-02-18T01:35:39.608Z,1.00
2023-02-18T01:38:06.268Z,1.00
2023-02-18T01:40:32.892Z,1.00
2023-02-18T01:42:59.390Z,1.00
2023-02-18T01:45:35.200Z,1.00
2023-02-18T01:48:09.337Z,1.00
2023-02-18T01:50:37.320Z,1.00
2023-02-18T01:53:04.581Z,1.00
2023-02-18T01:55:31.641Z,1.00
2023-02-18T01:57:58.132Z,1.00
2023-02-18T02:00:24.651Z,1.00
2023-02-18T02:02:52.285Z,1.00
2023-02-18T02:05:20.021Z,1.00
2023-02-18T02:07:47.753Z,1.00
2023-02-18T02:10:14.911Z,1.00
2023-02-18T02:12:44.576Z,1.00
2023-02-18T02:15:18.501Z,1.00
2023-02-18T02:17:44.979Z,1.00
2023-02-18T02:20:24.800Z,1.00
2023-02-18T02:23:02.037Z,1.00
2023-02-18T02:25:47.137Z,1.00
2023-02-18T02:28:34.115Z,1.00
2023-02-18T02:31:19.336Z,1.00
2023-02-18T02:33:50.071Z,1.00
2023-02-18T02:36:23.587Z,1.00
2023-02-18T02:38:55.319Z,1.00
2023-02-18T02:41:35.040Z,1.00
2023-02-18T02:44:21.359Z,1.00
2023-02-18T02:50:28.978Z,99.90
2023-02-18T02:52:58.607Z,99.90
2023-02-18T02:55:25.572Z,99.90
2023-02-18T02:57:53.433Z,99.90
2023-02-18T03:00:23.149Z,99.90
2023-02-18T03:02:58.938Z,99.90
2023-02-18T03:05:44.548Z,99.90
2023-02-18T03:08:18.081Z,99.90
2023-02-18T03:10:57.388Z,99.90
2023-02-18T03:13:26.999Z,99.90
2023-02-18T03:16:04.319Z,99.90
2023-02-18T03:18:36.669Z,99.90
2023-02-18T03:21:18.348Z,99.90
2023-02-18T03:23:55.244Z,1.00
2023-02-18T03:26:23.120Z,1.00
2023-02-18T03:28:51.220Z,1.00
2023-02-18T03:31:21.169Z,1.00
2023-02-18T03:33:59.810Z,1.00
2023-02-18T03:36:27.339Z,1.00
2023-02-18T03:38:56.024Z,1.00
2023-02-18T03:41:22.567Z,1.00
2023-02-18T03:43:50.383Z,1.00
2023-02-18T03:46:16.951Z,1.00
2023-02-18T03:48:43.712Z,1.00
2023-02-18T03:51:10.282Z,1.00
2023-02-18T03:53:36.776Z,1.00
2023-02-18T03:56:03.492Z,1.00
2023-02-18T03:58:30.029Z,1.00
2023-02-18T04:00:56.651Z,1.00
2023-02-18T04:03:23.184Z,1.00
2023-02-18T04:05:49.750Z,1.00
2023-02-18T04:08:16.470Z,1.00
2023-02-18T04:10:42.961Z,1.00
2023-02-18T04:13:09.604Z,1.00
2023-02-18T04:15:36.954Z,1.00
2023-02-18T04:18:03.576Z,1.00
2023-02-18T04:20:30.152Z,1.00
2023-02-18T04:22:56.659Z,1.00
2023-02-18T04:25:23.197Z,1.00
2023-02-18T04:27:49.731Z,1.00
2023-02-18T04:30:18.812Z,1.00
2023-02-18T04:32:45.640Z,1.00
2023-02-18T04:35:12.163Z,1.00
2023-02-18T04:37:38.674Z,1.00
2023-02-18T04:40:05.496Z,1.00
2023-02-18T04:42:32.121Z,1.00
2023-02-18T04:44:58.636Z,1.00
2023-02-18T04:47:25.130Z,1.00
2023-02-18T04:49:51.697Z,1.00
2023-02-18T04:52:18.393Z,1.00
2023-02-18T04:54:44.936Z,1.00
2023-02-18T04:57:11.718Z,1.00
2023-02-18T04:59:38.610Z,1.00
2023-02-18T05:02:05.135Z,1.00
2023-02-18T05:04:31.763Z,1.00
2023-02-18T05:06:58.289Z,1.00
2023-02-18T05:09:25.014Z,1.00
2023-02-18T05:11:51.769Z,1.00
2023-02-18T05:14:18.395Z,1.00
2023-02-18T05:16:44.890Z,1.00
2023-02-18T05:19:14.144Z,1.00
2023-02-18T05:21:40.712Z,1.00
2023-02-18T05:24:08.602Z,1.00
2023-02-18T05:26:35.577Z,1.00
2023-02-18T05:29:02.082Z,1.00
2023-02-18T05:31:28.712Z,1.00
2023-02-18T05:33:55.325Z,1.00
2023-02-18T05:36:21.977Z,1.00
2023-02-18T05:38:48.495Z,1.00
2023-02-18T05:41:15.031Z,1.00
2023-02-18T05:44:00.307Z,1.00
2023-02-18T05:46:26.855Z,1.00
2023-02-18T05:48:53.419Z,1.00
2023-02-18T05:51:19.995Z,1.00
2023-02-18T05:53:46.510Z,1.00
2023-02-18T05:56:13.005Z,1.00
2023-02-18T05:58:39.536Z,1.00
2023-02-18T06:01:06.027Z,1.00
2023-02-18T06:03:32.601Z,1.00
2023-02-18T06:05:59.185Z,1.00
2023-02-18T06:08:25.822Z,1.00
2023-02-18T06:10:52.348Z,1.00
2023-02-18T06:13:19.010Z,1.00
2023-02-18T06:15:45.562Z,1.00
2023-02-18T06:18:12.612Z,1.00
2023-02-18T06:20:39.550Z,1.00
2023-02-18T06:23:07.567Z,1.00
2023-02-18T06:25:34.199Z,1.00
2023-02-18T06:28:00.736Z,1.00
2023-02-18T06:30:27.261Z,1.00
2023-02-18T06:32:53.841Z,1.00
2023-02-18T06:35:20.370Z,1.00
2023-02-18T06:37:47.687Z,1.00
2023-02-18T06:40:14.272Z,1.00
2023-02-18T06:42:40.880Z,1.00
2023-02-18T06:45:07.833Z,1.00
2023-02-18T06:47:34.392Z,1.00
2023-02-18T06:50:00.894Z,1.00
2023-02-18T06:52:27.403Z,1.00
2023-02-18T06:54:54.073Z,1.00
2023-02-18T06:57:20.563Z,99.90
2023-02-18T06:59:47.397Z,99.90
2023-02-18T07:02:13.941Z,1.00
2023-02-18T07:04:40.436Z,1.00
2023-02-18T07:07:06.951Z,60.00
2023-02-18T07:09:33.467Z,1.00
2023-02-18T07:12:00.282Z,99.90
2023-02-18T07:14:28.037Z,1.00
2023-02-18T07:16:54.591Z,99.90
2023-02-18T07:19:21.114Z,1.00
2023-02-18T07:21:47.712Z,1.00
2023-02-18T07:24:14.254Z,99.90
2023-02-18T07:26:40.811Z,1.00
2023-02-18T07:29:07.331Z,1.00
2023-02-18T07:31:33.967Z,99.90
2023-02-18T07:34:00.664Z,99.90
2023-02-18T07:36:27.317Z,99.90
2023-02-18T07:38:53.839Z,99.90
2023-02-18T07:41:21.703Z,70.70
2023-02-18T07:43:48.615Z,99.90
2023-02-18T07:46:15.706Z,40.50
2023-02-18T07:48:42.377Z,1.00
2023-02-18T07:51:09.710Z,1.00
2023-02-18T07:53:37.012Z,1.00
2023-02-18T07:56:03.642Z,1.00
2023-02-18T07:58:31.480Z,1.00
2023-02-18T08:00:58.284Z,1.00
2023-02-18T08:03:25.954Z,1.00
2023-02-18T08:05:52.560Z,1.00
2023-02-18T08:08:21.012Z,1.00
2023-02-18T08:10:47.932Z,1.00
2023-02-18T08:13:14.448Z,1.00
2023-02-18T08:15:41.019Z,99.90
2023-02-18T08:18:08.267Z,99.90
2023-02-18T08:20:38.266Z,99.90
2023-02-18T08:23:05.455Z,99.90
2023-02-18T08:25:32.465Z,99.90
2023-02-18T08:27:59.212Z,99.90
2023-02-18T08:30:26.269Z,99.90
2023-02-18T08:32:53.180Z,99.90
2023-02-18T08:35:19.784Z,99.90
2023-02-18T08:37:53.069Z,99.90
2023-02-18T08:40:20.916Z,99.90
2023-02-18T08:42:47.426Z,99.90
2023-02-18T08:45:13.961Z,99.90
2023-02-18T08:48:16.259Z,99.90
2023-02-18T08:50:28.270Z,99.90
2023-02-18T08:52:55.107Z,99.90
2023-02-18T08:55:21.632Z,99.90
2023-02-18T08:57:48.493Z,99.90
2023-02-18T09:00:16.158Z,99.90
2023-02-18T09:02:43.270Z,99.90
2023-02-18T09:05:10.345Z,99.90
2023-02-18T09:07:37.081Z,99.90
2023-02-18T09:10:04.008Z,99.90
2023-02-18T09:12:30.654Z,99.90
2023-02-18T09:14:57.409Z,99.90
2023-02-18T09:17:23.921Z,99.90
2023-02-18T09:19:50.458Z,99.90
2023-02-18T09:22:17.152Z,99.90
2023-02-18T09:24:43.808Z,99.90
2023-02-18T09:27:11.358Z,99.90
2023-02-18T09:29:39.263Z,99.90
2023-02-18T09:32:06.248Z,99.90
2023-02-18T09:34:32.966Z,99.90
2023-02-18T09:36:59.463Z,99.90
2023-02-18T09:39:26.723Z,99.90
2023-02-18T09:41:54.898Z,99.90
2023-02-18T09:44:25.286Z,99.90
2023-02-18T09:46:59.265Z,99.90
2023-02-18T09:49:27.176Z,99.90
2023-02-18T09:51:55.325Z,99.90
2023-02-18T09:54:22.010Z,99.90
2023-02-18T09:56:48.959Z,99.90
2023-02-18T09:59:21.004Z,99.90
2023-02-18T10:01:49.147Z,99.90
2023-02-18T10:04:23.877Z,99.90
2023-02-18T10:06:51.933Z,99.90
2023-02-18T10:09:20.917Z,99.90
2023-02-18T10:11:52.523Z,99.90
2023-02-18T10:14:19.044Z,99.90
2023-02-18T10:16:46.318Z,99.90
2023-02-18T10:19:24.206Z,99.90
2023-02-18T10:21:51.989Z,99.90
2023-02-18T10:24:18.481Z,99.90
2023-02-18T10:26:45.070Z,99.90
2023-02-18T10:29:14.532Z,99.90
2023-02-18T10:31:44.169Z,99.90
2023-02-18T10:34:29.809Z,99.90
2023-02-18T10:37:01.027Z,99.90
2023-02-18T10:39:49.163Z,99.90
2023-02-18T10:42:34.988Z,99.90
2023-02-18T10:45:19.919Z,99.90
2023-02-18T10:48:04.842Z,99.90
2023-02-18T10:50:41.607Z,99.90
2023-02-18T10:53:11.315Z,99.90
2023-02-18T10:55:42.117Z,99.90
2023-02-18T10:58:23.679Z,99.90
2023-02-18T11:00:50.404Z,99.90
2023-02-18T11:03:18.764Z,99.90
2023-02-18T11:05:47.108Z,99.90
2023-02-18T11:08:16.395Z,99.90
2023-02-18T11:10:44.817Z,99.90
2023-02-18T11:13:13.390Z,99.90
2023-02-18T11:15:53.304Z,99.90
2023-02-18T11:18:25.948Z,99.90
2023-02-18T11:20:57.811Z,99.90
2023-02-18T11:23:25.612Z,99.90
2023-02-18T11:26:06.111Z,99.90
2023-02-18T11:28:32.733Z,99.90
2023-02-18T11:31:00.267Z,99.90
2023-02-18T11:33:53.124Z,99.90
2023-02-18T11:36:22.384Z,99.90
2023-02-18T11:38:50.813Z,99.90
2023-02-18T11:41:18.833Z,99.90
2023-02-18T11:43:48.069Z,99.90
2023-02-18T11:46:19.108Z,99.90
2023-02-18T11:48:46.487Z,99.90
2023-02-18T11:51:39.468Z,99.90
2023-02-18T11:54:20.576Z,99.90
2023-02-18T11:56:54.642Z,99.90
2023-02-18T11:59:22.249Z,99.90
2023-02-18T12:01:54.994Z,99.90
2023-02-18T12:04:24.788Z,99.90
2023-02-18T12:07:01.648Z,99.90
2023-02-18T12:09:40.228Z,99.90
2023-02-18T12:12:17.636Z,99.90
2023-02-18T12:14:44.776Z,99.90
2023-02-18T12:17:11.525Z,99.90
2023-02-18T12:19:42.297Z,99.90
2023-02-18T12:22:14.086Z,99.90
2023-02-18T12:25:02.261Z,99.90
2023-02-18T12:27:38.921Z,99.90
2023-02-18T12:30:20.016Z,99.90
2023-02-18T12:32:51.248Z,99.90
2023-02-18T12:35:44.037Z,99.90
2023-02-18T12:38:29.770Z,99.90
2023-02-18T12:41:02.648Z,99.90
2023-02-18T12:43:36.520Z,99.90
2023-02-18T12:46:22.009Z,99.90
2023-02-18T12:48:54.556Z,99.90
2023-02-18T12:51:30.291Z,99.90
2023-02-18T12:53:56.897Z,99.90
2023-02-18T12:56:49.780Z,99.90
2023-02-18T12:59:25.201Z,99.90
2023-02-18T13:02:02.221Z,99.90
2023-02-18T13:04:47.397Z,99.90
2023-02-18T13:07:26.361Z,99.90
2023-02-18T13:10:12.328Z,99.90
2023-02-18T13:12:48.657Z,99.90
2023-02-18T13:15:33.575Z,99.90
2023-02-18T13:18:01.262Z,99.90
2023-02-18T13:20:40.418Z,99.90
2023-02-18T13:23:10.265Z,99.90
2023-02-18T13:25:38.882Z,99.90
2023-02-18T13:28:21.384Z,99.90
2023-02-18T13:31:08.657Z,99.90
2023-02-18T13:34:04.875Z,99.90
2023-02-18T13:36:31.629Z,99.90
2023-02-18T13:39:04.107Z,1.00
2023-02-18T13:41:34.395Z,1.00
2023-02-18T13:44:00.913Z,99.90
2023-02-18T13:46:28.215Z,99.90
2023-02-18T13:49:03.788Z,99.90
2023-02-18T13:51:31.987Z,99.90
2023-02-18T13:54:17.453Z,99.90
2023-02-18T13:56:50.888Z,99.90
2023-02-18T13:59:23.399Z,99.90
2023-02-18T14:01:50.946Z,99.90
2023-02-18T14:04:36.448Z,99.90
2023-02-18T14:07:21.768Z,99.90
2023-02-18T14:09:48.455Z,99.90
2023-02-18T14:12:16.927Z,99.90
2023-02-18T14:14:43.611Z,99.90
2023-02-18T14:17:14.001Z,99.90
2023-02-18T14:19:40.530Z,99.90
2023-02-18T14:22:24.481Z,99.90
2023-02-18T14:24:55.710Z,99.90
2023-02-18T14:27:23.856Z,99.90
2023-02-18T14:29:51.774Z,99.90
2023-02-18T14:32:19.643Z,99.90
2023-02-18T14:35:04.756Z,99.90
2023-02-18T14:37:43.943Z,99.90
2023-02-18T14:40:23.993Z,99.90
2023-02-18T14:43:05.852Z,99.90
2023-02-18T14:45:47.793Z,99.90
2023-02-18T14:48:24.040Z,99.90
2023-02-18T14:50:51.240Z,99.90
2023-02-18T14:53:19.599Z,99.90
2023-02-18T14:55:50.687Z,99.90
2023-02-18T14:58:28.028Z,99.90
2023-02-18T15:00:54.644Z,99.90
2023-02-18T15:03:22.609Z,99.90
2023-02-18T15:05:51.306Z,99.90
2023-02-18T15:08:21.794Z,99.90
2023-02-18T15:10:51.515Z,99.90
2023-02-18T15:13:21.397Z,99.90
2023-02-18T15:15:50.484Z,99.90
2023-02-18T15:18:20.503Z,99.90
2023-02-18T15:20:47.198Z,99.90
2023-02-18T15:23:15.872Z,99.90
2023-02-18T15:25:45.318Z,99.90
2023-02-18T15:28:22.543Z,99.90
2023-02-18T15:30:49.069Z,99.90
2023-02-18T15:33:15.887Z,99.90
2023-02-18T15:35:42.498Z,99.90
2023-02-18T15:38:19.240Z,99.90
2023-02-18T15:40:51.972Z,99.90
2023-02-18T15:43:23.363Z,99.90
2023-02-18T15:45:51.299Z,99.90
2023-02-18T15:48:24.423Z,99.90
2023-02-18T15:50:58.523Z,99.90
2023-02-18T15:53:29.884Z,99.90
2023-02-18T15:55:56.468Z,99.90
2023-02-18T15:58:22.951Z,99.90
2023-02-18T16:00:54.404Z,99.90
2023-02-18T16:03:25.349Z,99.90
2023-02-18T16:06:07.040Z,99.90
2023-02-18T16:08:33.736Z,99.90
2023-02-18T16:11:03.198Z,99.90
2023-02-18T16:13:31.360Z,99.90
2023-02-18T16:16:00.843Z,99.90
2023-02-18T16:18:29.334Z,99.90
2023-02-18T16:20:57.642Z,99.90
2023-02-18T16:23:31.354Z,99.90
2023-02-18T16:26:08.961Z,99.90
2023-02-18T16:28:35.655Z,99.90
2023-02-18T16:31:02.206Z,99.90
2023-02-18T16:33:28.787Z,99.90
2023-02-18T16:35:57.640Z,99.90
2023-02-18T16:38:24.390Z,99.90
2023-02-18T16:40:51.904Z,99.90
2023-02-18T16:43:19.874Z,99.90
2023-02-18T16:45:50.118Z,99.90
2023-02-18T16:48:21.179Z,99.90
2023-02-18T16:50:49.472Z,99.90
2023-02-18T16:53:16.154Z,99.90
2023-02-18T16:55:44.470Z,99.90
2023-02-18T16:58:10.965Z,99.90
2023-02-18T17:00:38.495Z,99.90
2023-02-18T17:03:05.691Z,99.90
2023-02-18T17:05:39.479Z,99.90
2023-02-18T17:08:12.426Z,99.90
2023-02-18T17:10:39.034Z,99.90
2023-02-18T17:13:05.551Z,99.90
2023-02-18T17:15:34.926Z,99.90
2023-02-18T17:18:01.744Z,99.90
2023-02-18T17:20:29.480Z,99.90
2023-02-18T17:22:56.273Z,99.90
2023-02-18T17:25:24.680Z,99.90
2023-02-18T17:27:51.693Z,99.90
2023-02-18T17:30:18.486Z,99.90
2023-02-18T17:32:45.411Z,99.90
2023-02-18T17:35:19.756Z,99.90
2023-02-18T17:37:46.462Z,99.90
2023-02-18T17:40:14.232Z,99.90
2023-02-18T17:42:40.792Z,99.90
2023-02-18T17:45:26.117Z,99.90
2023-02-18T17:47:52.617Z,99.90
2023-02-18T17:50:19.141Z,99.90
2023-02-18T17:52:46.321Z,99.90
2023-02-18T17:55:16.506Z,99.90
2023-02-18T17:57:44.934Z,99.90
2023-02-18T18:00:12.795Z,99.90
2023-02-18T18:02:39.327Z,99.90
2023-02-18T18:05:06.100Z,1.00
2023-02-18T18:07:32.673Z,1.00
2023-02-18T18:09:59.196Z,1.00
2023-02-18T18:12:25.753Z,1.00
2023-02-18T18:14:52.286Z,1.00
2023-02-18T18:17:18.922Z,99.90
2023-02-18T18:19:45.439Z,1.00
2023-02-18T18:22:11.948Z,1.00
2023-02-18T18:24:38.445Z,1.00
2023-02-18T18:27:04.939Z,1.00
2023-02-18T18:29:31.556Z,71.60
2023-02-18T18:31:58.104Z,1.00
2023-02-18T18:34:24.957Z,1.00
2023-02-18T18:36:51.526Z,99.90
2023-02-18T18:39:18.074Z,99.90
2023-02-18T18:41:44.654Z,1.00
2023-02-18T18:44:11.648Z,1.00
2023-02-18T18:46:39.061Z,1.00
2023-02-18T18:49:05.594Z,1.00
2023-02-18T18:51:32.594Z,1.00
2023-02-18T18:53:59.134Z,1.00
2023-02-18T18:56:25.676Z,1.00
2023-02-18T18:58:52.621Z,99.90
2023-02-18T19:01:22.499Z,99.90
2023-02-18T19:03:49.625Z,1.00
2023-02-18T19:06:16.718Z,1.00
2023-02-18T19:08:43.626Z,1.00
2023-02-18T19:11:11.270Z,1.00
2023-02-18T19:13:38.121Z,1.00
2023-02-18T19:16:20.035Z,1.00
2023-02-18T19:18:47.165Z,1.00
2023-02-18T19:21:13.749Z,1.00
2023-02-18T19:23:40.705Z,1.00
2023-02-18T19:26:07.633Z,1.00
2023-02-18T19:28:34.192Z,1.00
2023-02-18T19:31:00.845Z,99.90
2023-02-18T19:33:27.621Z,99.90
2023-02-18T19:35:54.128Z,99.90
2023-02-18T19:38:20.806Z,99.90
2023-02-18T19:40:47.534Z,99.90
2023-02-18T19:43:14.152Z,72.20
2023-02-18T19:45:43.038Z,1.00
2023-02-18T19:48:10.006Z,1.00
2023-02-18T19:50:36.554Z,1.00
2023-02-18T19:53:03.082Z,44.70
2023-02-18T19:55:29.632Z,1.00
2023-02-18T19:57:56.262Z,1.00
2023-02-18T20:00:22.876Z,99.90
2023-02-18T20:02:50.162Z,1.00
2023-02-18T20:05:17.423Z,99.90
2023-02-18T20:07:46.783Z,99.90
2023-02-18T20:10:17.843Z,1.00
2023-02-18T20:12:44.483Z,1.00
2023-02-18T20:15:11.161Z,99.90
2023-02-18T20:17:39.302Z,99.90
2023-02-18T20:20:06.716Z,99.90
2023-02-18T20:22:33.729Z,99.90
2023-02-18T20:25:00.288Z,99.90
2023-02-18T20:27:26.846Z,98.30
2023-02-18T20:29:53.367Z,4.10
2023-02-18T20:32:20.035Z,99.90
2023-02-18T20:34:46.636Z,99.90
2023-02-18T20:37:13.123Z,86.60
2023-02-18T20:39:39.708Z,1.00
2023-02-18T20:42:15.810Z,99.90
2023-02-18T20:44:43.770Z,1.00
2023-02-18T20:47:12.878Z,1.00
2023-02-18T20:49:40.502Z,1.00
2023-02-18T20:52:07.912Z,1.00
2023-02-18T20:54:34.643Z,1.00
2023-02-18T20:57:01.883Z,1.00
2023-02-18T20:59:29.795Z,1.00
2023-02-18T21:01:56.429Z,1.00
2023-02-18T21:04:23.046Z,1.00
2023-02-18T21:06:50.497Z,99.90
2023-02-18T21:09:17.681Z,99.90
2023-02-18T21:11:44.294Z,99.90
2023-02-18T21:14:10.830Z,99.90
2023-02-18T21:16:40.415Z,99.90
2023-02-18T21:19:08.053Z,1.00
2023-02-18T21:21:35.001Z,1.00
2023-02-18T21:24:02.743Z,1.00
2023-02-18T21:26:29.415Z,1.00
2023-02-18T21:28:57.460Z,99.90
2023-02-18T21:31:25.710Z,99.90
2023-02-18T21:33:52.484Z,99.90
2023-02-18T21:36:19.521Z,99.90
2023-02-18T21:38:50.980Z,99.90
2023-02-18T21:41:17.514Z,1.00
2023-02-18T21:43:44.334Z,1.00
2023-02-18T21:46:14.665Z,1.00
2023-02-18T21:49:00.042Z,1.00
2023-02-18T21:51:45.070Z,99.90
2023-02-18T21:54:11.603Z,7.60
2023-02-18T21:56:38.153Z,1.00
2023-02-18T21:59:04.666Z,1.00
2023-02-18T22:01:31.268Z,1.00
2023-02-18T22:03:57.873Z,1.00
2023-02-18T22:06:24.472Z,1.00
2023-02-18T22:08:51.016Z,1.00
2023-02-18T22:11:17.580Z,99.90
2023-02-18T22:13:44.138Z,99.90
2023-02-18T22:16:10.829Z,99.90
2023-02-18T22:18:37.760Z,99.90
2023-02-18T22:21:05.517Z,99.90
2023-02-18T22:23:32.045Z,99.90
2023-02-18T22:26:01.956Z,99.90
2023-02-18T22:28:28.489Z,99.90
2023-02-18T22:30:55.010Z,99.90
2023-02-18T22:33:21.496Z,79.10
2023-02-18T22:35:48.018Z,51.00
2023-02-18T22:38:14.592Z,1.00
2023-02-18T22:40:41.179Z,1.00
2023-02-18T22:43:07.783Z,1.00
2023-02-18T22:45:37.615Z,15.00
2023-02-18T22:48:04.364Z,99.90
2023-02-18T22:50:30.912Z,99.90
2023-02-18T22:52:57.436Z,39.50
2023-02-18T22:55:23.939Z,1.00
2023-02-18T22:57:50.460Z,1.00
2023-02-18T23:00:17.225Z,1.00
2023-02-18T23:02:49.757Z,1.00
2023-02-18T23:05:16.414Z,1.00
2023-02-18T23:07:43.030Z,1.00
2023-02-18T23:10:09.672Z,1.00
2023-02-18T23:12:36.285Z,1.00
2023-02-18T23:15:02.980Z,19.20
2023-02-18T23:17:29.548Z,99.90
2023-02-18T23:19:56.085Z,99.90
2023-02-18T23:22:32.108Z,99.90
2023-02-18T23:24:59.389Z,99.90
2023-02-18T23:27:26.656Z,58.80
2023-02-18T23:29:53.594Z,1.00
2023-02-18T23:32:20.178Z,99.90
2023-02-18T23:34:46.717Z,99.90
2023-02-18T23:37:13.301Z,99.90
2023-02-18T23:39:40.017Z,99.90
2023-02-18T23:42:06.702Z,1.00
2023-02-18T23:44:33.321Z,1.00
2023-02-18T23:47:03.006Z,1.00
2023-02-18T23:49:29.564Z,1.00
2023-02-18T23:51:57.395Z,39.40
2023-02-18T23:54:24.535Z,8.20
2023-02-18T23:56:51.239Z,15.70
2023-02-18T23:59:18.324Z,1.00
